sensor_id;sensor_type;location;lat;lon;timestamp;P1;durP1;ratioP1;P2;durP2;ratioP2
46755;SDS011;32506;52.826;-1.192;2023-04-25T00:01:28;8.98;;;1.75;;
46755;SDS011;32506;52.826;-1.192;2023-04-25T00:03:54;6.80;;;2.30;;
46755;SDS011;32506;52.826;-1.192;2023-04-25T00:06:19;6.10;;;2.15;;
46755;SDS011;32506;52.826;-1.192;2023-04-25T00:08:44;3.22;;;1.30;;
46755;SDS011;32506;52.826;-1.192;2023-04-25T00:11:10;4.38;;;2.08;;
46755;SDS011;32506;52.826;-1.192;2023-04-25T00:13:35;7.63;;;1.88;;
46755;SDS011;32506;52.826;-1.192;2023-04-25T00:16:01;3.72;;;1.48;;
46755;SDS011;32506;52.826;-1.192;2023-04-25T00:18:27;6.10;;;2.00;;
46755;SDS011;32506;52.826;-1.192;2023-04-25T00:20:54;6.38;;;1.48;;
46755;SDS011;32506;52.826;-1.192;2023-04-25T00:23:20;6.85;;;1.40;;
46755;SDS011;32506;52.826;-1.192;2023-04-25T00:25:48;5.68;;;1.60;;
46755;SDS011;32506;52.826;-1.192;2023-04-25T00:28:15;4.07;;;1.65;;
46755;SDS011;32506;52.826;-1.192;2023-04-25T00:30:41;6.25;;;1.73;;
46755;SDS011;32506;52.826;-1.192;2023-04-25T00:33:07;8.18;;;2.28;;
46755;SDS011;32506;52.826;-1.192;2023-04-25T00:35:33;4.82;;;1.60;;
46755;SDS011;32506;52.826;-1.192;2023-04-25T00:37:59;4.80;;;2.13;;
46755;SDS011;32506;52.826;-1.192;2023-04-25T00:40:25;6.05;;;1.83;;
46755;SDS011;32506;52.826;-1.192;2023-04-25T00:42:52;5.63;;;1.77;;
46755;SDS011;32506;52.826;-1.192;2023-04-25T00:45:18;10.77;;;2.17;;
46755;SDS011;32506;52.826;-1.192;2023-04-25T00:47:44;4.18;;;1.60;;
46755;SDS011;32506;52.826;-1.192;2023-04-25T00:50:10;4.03;;;1.23;;
46755;SDS011;32506;52.826;-1.192;2023-04-25T00:52:40;5.35;;;1.63;;
46755;SDS011;32506;52.826;-1.192;2023-04-25T00:55:09;3.67;;;1.85;;
46755;SDS011;32506;52.826;-1.192;2023-04-25T00:57:35;8.00;;;1.73;;
46755;SDS011;32506;52.826;-1.192;2023-04-25T01:00:02;4.95;;;1.40;;
46755;SDS011;32506;52.826;-1.192;2023-04-25T01:02:30;4.80;;;1.38;;
46755;SDS011;32506;52.826;-1.192;2023-04-25T01:04:57;4.00;;;1.52;;
46755;SDS011;32506;52.826;-1.192;2023-04-25T01:07:22;5.53;;;1.70;;
46755;SDS011;32506;52.826;-1.192;2023-04-25T01:09:48;5.25;;;1.73;;
46755;SDS011;32506;52.826;-1.192;2023-04-25T01:12:13;3.20;;;1.50;;
46755;SDS011;32506;52.826;-1.192;2023-04-25T01:14:39;5.07;;;1.55;;
46755;SDS011;32506;52.826;-1.192;2023-04-25T01:17:05;3.08;;;1.25;;
46755;SDS011;32506;52.826;-1.192;2023-04-25T01:19:32;5.40;;;1.50;;
46755;SDS011;32506;52.826;-1.192;2023-04-25T01:21:58;7.43;;;2.22;;
46755;SDS011;32506;52.826;-1.192;2023-04-25T01:24:23;5.63;;;1.67;;
46755;SDS011;32506;52.826;-1.192;2023-04-25T01:26:49;4.80;;;1.70;;
46755;SDS011;32506;52.826;-1.192;2023-04-25T01:29:19;5.97;;;1.50;;
46755;SDS011;32506;52.826;-1.192;2023-04-25T01:31:45;8.40;;;1.70;;
46755;SDS011;32506;52.826;-1.192;2023-04-25T01:34:11;4.00;;;1.88;;
46755;SDS011;32506;52.826;-1.192;2023-04-25T01:36:37;4.53;;;1.88;;
46755;SDS011;32506;52.826;-1.192;2023-04-25T01:39:02;5.53;;;1.90;;
46755;SDS011;32506;52.826;-1.192;2023-04-25T01:41:28;5.00;;;1.50;;
46755;SDS011;32506;52.826;-1.192;2023-04-25T01:43:54;5.35;;;1.55;;
46755;SDS011;32506;52.826;-1.192;2023-04-25T01:46:19;4.65;;;1.58;;
46755;SDS011;32506;52.826;-1.192;2023-04-25T01:48:45;5.72;;;1.52;;
46755;SDS011;32506;52.826;-1.192;2023-04-25T01:51:11;5.57;;;1.65;;
46755;SDS011;32506;52.826;-1.192;2023-04-25T01:53:37;2.65;;;1.48;;
46755;SDS011;32506;52.826;-1.192;2023-04-25T01:56:04;6.45;;;1.90;;
46755;SDS011;32506;52.826;-1.192;2023-04-25T01:58:42;4.63;;;1.98;;
46755;SDS011;32506;52.826;-1.192;2023-04-25T02:01:07;7.03;;;1.85;;
46755;SDS011;32506;52.826;-1.192;2023-04-25T02:03:34;5.38;;;1.60;;
46755;SDS011;32506;52.826;-1.192;2023-04-25T02:05:59;4.13;;;1.38;;
46755;SDS011;32506;52.826;-1.192;2023-04-25T02:08:25;5.18;;;1.40;;
46755;SDS011;32506;52.826;-1.192;2023-04-25T02:10:51;7.75;;;1.58;;
46755;SDS011;32506;52.826;-1.192;2023-04-25T02:13:17;5.68;;;1.67;;
46755;SDS011;32506;52.826;-1.192;2023-04-25T02:15:42;6.30;;;1.48;;
46755;SDS011;32506;52.826;-1.192;2023-04-25T02:18:08;4.38;;;1.25;;
46755;SDS011;32506;52.826;-1.192;2023-04-25T02:20:35;6.70;;;1.40;;
46755;SDS011;32506;52.826;-1.192;2023-04-25T02:23:01;7.15;;;1.50;;
46755;SDS011;32506;52.826;-1.192;2023-04-25T02:25:27;5.65;;;1.70;;
46755;SDS011;32506;52.826;-1.192;2023-04-25T02:27:52;5.70;;;1.50;;
46755;SDS011;32506;52.826;-1.192;2023-04-25T02:30:18;5.28;;;1.60;;
46755;SDS011;32506;52.826;-1.192;2023-04-25T02:32:44;6.30;;;1.92;;
46755;SDS011;32506;52.826;-1.192;2023-04-25T02:35:10;3.50;;;1.70;;
46755;SDS011;32506;52.826;-1.192;2023-04-25T02:37:38;6.70;;;1.60;;
46755;SDS011;32506;52.826;-1.192;2023-04-25T02:40:04;6.70;;;1.38;;
46755;SDS011;32506;52.826;-1.192;2023-04-25T02:42:30;5.80;;;1.83;;
46755;SDS011;32506;52.826;-1.192;2023-04-25T02:44:55;7.80;;;1.95;;
46755;SDS011;32506;52.826;-1.192;2023-04-25T02:47:21;4.60;;;1.48;;
46755;SDS011;32506;52.826;-1.192;2023-04-25T02:49:47;6.80;;;2.05;;
46755;SDS011;32506;52.826;-1.192;2023-04-25T02:52:12;4.32;;;1.42;;
46755;SDS011;32506;52.826;-1.192;2023-04-25T02:54:39;4.88;;;1.48;;
46755;SDS011;32506;52.826;-1.192;2023-04-25T02:57:05;4.90;;;1.67;;
46755;SDS011;32506;52.826;-1.192;2023-04-25T02:59:31;4.25;;;1.23;;
46755;SDS011;32506;52.826;-1.192;2023-04-25T03:01:56;6.93;;;1.52;;
46755;SDS011;32506;52.826;-1.192;2023-04-25T03:04:22;5.05;;;1.42;;
46755;SDS011;32506;52.826;-1.192;2023-04-25T03:06:49;4.85;;;2.08;;
46755;SDS011;32506;52.826;-1.192;2023-04-25T03:09:17;4.80;;;1.50;;
46755;SDS011;32506;52.826;-1.192;2023-04-25T03:11:44;4.72;;;1.40;;
46755;SDS011;32506;52.826;-1.192;2023-04-25T03:14:10;10.43;;;1.85;;
46755;SDS011;32506;52.826;-1.192;2023-04-25T03:16:35;6.53;;;1.65;;
46755;SDS011;32506;52.826;-1.192;2023-04-25T03:19:01;5.60;;;1.80;;
46755;SDS011;32506;52.826;-1.192;2023-04-25T03:21:28;4.03;;;1.60;;
46755;SDS011;32506;52.826;-1.192;2023-04-25T03:23:53;4.10;;;1.52;;
46755;SDS011;32506;52.826;-1.192;2023-04-25T03:26:19;5.28;;;1.83;;
46755;SDS011;32506;52.826;-1.192;2023-04-25T03:28:44;3.65;;;1.10;;
46755;SDS011;32506;52.826;-1.192;2023-04-25T03:31:10;4.72;;;1.40;;
46755;SDS011;32506;52.826;-1.192;2023-04-25T03:33:35;3.65;;;1.35;;
46755;SDS011;32506;52.826;-1.192;2023-04-25T03:36:00;5.63;;;1.30;;
46755;SDS011;32506;52.826;-1.192;2023-04-25T03:38:26;5.80;;;1.55;;
46755;SDS011;32506;52.826;-1.192;2023-04-25T03:40:51;4.72;;;1.50;;
46755;SDS011;32506;52.826;-1.192;2023-04-25T03:43:17;4.15;;;1.02;;
46755;SDS011;32506;52.826;-1.192;2023-04-25T03:45:43;3.33;;;1.08;;
46755;SDS011;32506;52.826;-1.192;2023-04-25T03:48:09;5.78;;;1.45;;
46755;SDS011;32506;52.826;-1.192;2023-04-25T03:50:34;5.47;;;1.10;;
46755;SDS011;32506;52.826;-1.192;2023-04-25T03:53:00;4.55;;;1.27;;
46755;SDS011;32506;52.826;-1.192;2023-04-25T03:55:25;4.10;;;1.20;;
46755;SDS011;32506;52.826;-1.192;2023-04-25T03:57:50;4.82;;;1.00;;
46755;SDS011;32506;52.826;-1.192;2023-04-25T04:00:16;4.57;;;1.10;;
46755;SDS011;32506;52.826;-1.192;2023-04-25T04:02:42;7.43;;;1.80;;
46755;SDS011;32506;52.826;-1.192;2023-04-25T04:05:07;5.25;;;1.30;;
46755;SDS011;32506;52.826;-1.192;2023-04-25T04:07:33;2.75;;;1.42;;
46755;SDS011;32506;52.826;-1.192;2023-04-25T04:10:00;4.45;;;1.45;;
46755;SDS011;32506;52.826;-1.192;2023-04-25T04:12:26;3.20;;;1.30;;
46755;SDS011;32506;52.826;-1.192;2023-04-25T04:14:51;4.72;;;1.73;;
46755;SDS011;32506;52.826;-1.192;2023-04-25T04:17:16;5.10;;;1.10;;
46755;SDS011;32506;52.826;-1.192;2023-04-25T04:19:42;5.53;;;1.00;;
46755;SDS011;32506;52.826;-1.192;2023-04-25T04:22:07;4.07;;;1.20;;
46755;SDS011;32506;52.826;-1.192;2023-04-25T04:24:33;4.97;;;1.30;;
46755;SDS011;32506;52.826;-1.192;2023-04-25T04:26:58;5.72;;;1.40;;
46755;SDS011;32506;52.826;-1.192;2023-04-25T04:29:24;5.05;;;1.10;;
46755;SDS011;32506;52.826;-1.192;2023-04-25T04:31:50;4.50;;;1.58;;
46755;SDS011;32506;52.826;-1.192;2023-04-25T04:34:17;5.53;;;0.98;;
46755;SDS011;32506;52.826;-1.192;2023-04-25T04:36:43;4.07;;;1.20;;
46755;SDS011;32506;52.826;-1.192;2023-04-25T04:39:11;3.45;;;1.00;;
46755;SDS011;32506;52.826;-1.192;2023-04-25T04:41:37;5.68;;;1.17;;
46755;SDS011;32506;52.826;-1.192;2023-04-25T04:44:03;4.68;;;1.20;;
46755;SDS011;32506;52.826;-1.192;2023-04-25T04:46:28;3.15;;;1.30;;
46755;SDS011;32506;52.826;-1.192;2023-04-25T04:48:55;2.92;;;1.65;;
46755;SDS011;32506;52.826;-1.192;2023-04-25T04:51:21;4.25;;;1.23;;
46755;SDS011;32506;52.826;-1.192;2023-04-25T04:53:47;4.65;;;1.10;;
46755;SDS011;32506;52.826;-1.192;2023-04-25T04:56:12;3.33;;;1.02;;
46755;SDS011;32506;52.826;-1.192;2023-04-25T04:58:37;5.10;;;1.25;;
46755;SDS011;32506;52.826;-1.192;2023-04-25T05:01:03;3.03;;;1.00;;
46755;SDS011;32506;52.826;-1.192;2023-04-25T05:03:29;4.93;;;1.65;;
46755;SDS011;32506;52.826;-1.192;2023-04-25T05:05:54;2.67;;;1.17;;
46755;SDS011;32506;52.826;-1.192;2023-04-25T05:08:20;3.20;;;0.85;;
46755;SDS011;32506;52.826;-1.192;2023-04-25T05:10:45;2.83;;;0.98;;
46755;SDS011;32506;52.826;-1.192;2023-04-25T05:13:11;5.35;;;1.27;;
46755;SDS011;32506;52.826;-1.192;2023-04-25T05:15:36;7.28;;;1.63;;
46755;SDS011;32506;52.826;-1.192;2023-04-25T05:18:02;3.70;;;1.98;;
46755;SDS011;32506;52.826;-1.192;2023-04-25T05:20:27;6.05;;;1.25;;
46755;SDS011;32506;52.826;-1.192;2023-04-25T05:22:53;3.95;;;1.48;;
46755;SDS011;32506;52.826;-1.192;2023-04-25T05:25:18;5.00;;;1.63;;
46755;SDS011;32506;52.826;-1.192;2023-04-25T05:27:44;4.95;;;1.00;;
46755;SDS011;32506;52.826;-1.192;2023-04-25T05:30:09;4.82;;;1.00;;
46755;SDS011;32506;52.826;-1.192;2023-04-25T05:32:35;4.70;;;1.60;;
46755;SDS011;32506;52.826;-1.192;2023-04-25T05:35:01;5.25;;;1.15;;
46755;SDS011;32506;52.826;-1.192;2023-04-25T05:37:27;6.60;;;1.48;;
46755;SDS011;32506;52.826;-1.192;2023-04-25T05:39:55;5.28;;;1.00;;
46755;SDS011;32506;52.826;-1.192;2023-04-25T05:42:20;4.05;;;1.30;;
46755;SDS011;32506;52.826;-1.192;2023-04-25T05:44:46;5.70;;;1.58;;
46755;SDS011;32506;52.826;-1.192;2023-04-25T05:47:12;4.63;;;1.20;;
46755;SDS011;32506;52.826;-1.192;2023-04-25T05:49:37;4.40;;;0.90;;
46755;SDS011;32506;52.826;-1.192;2023-04-25T05:52:02;6.10;;;1.15;;
46755;SDS011;32506;52.826;-1.192;2023-04-25T05:54:28;6.70;;;1.10;;
46755;SDS011;32506;52.826;-1.192;2023-04-25T05:56:53;5.53;;;1.42;;
46755;SDS011;32506;52.826;-1.192;2023-04-25T05:59:19;6.85;;;1.30;;
46755;SDS011;32506;52.826;-1.192;2023-04-25T06:01:45;3.42;;;1.17;;
46755;SDS011;32506;52.826;-1.192;2023-04-25T06:04:11;1.88;;;0.77;;
46755;SDS011;32506;52.826;-1.192;2023-04-25T06:06:37;3.88;;;1.08;;
46755;SDS011;32506;52.826;-1.192;2023-04-25T06:09:02;5.00;;;1.35;;
46755;SDS011;32506;52.826;-1.192;2023-04-25T06:11:27;4.57;;;1.20;;
46755;SDS011;32506;52.826;-1.192;2023-04-25T06:13:53;4.47;;;1.50;;
46755;SDS011;32506;52.826;-1.192;2023-04-25T06:16:19;2.85;;;1.00;;
46755;SDS011;32506;52.826;-1.192;2023-04-25T06:18:44;6.20;;;1.40;;
46755;SDS011;32506;52.826;-1.192;2023-04-25T06:21:10;4.00;;;1.20;;
46755;SDS011;32506;52.826;-1.192;2023-04-25T06:23:35;6.15;;;1.50;;
46755;SDS011;32506;52.826;-1.192;2023-04-25T06:26:01;3.45;;;1.50;;
46755;SDS011;32506;52.826;-1.192;2023-04-25T06:28:26;4.32;;;1.40;;
46755;SDS011;32506;52.826;-1.192;2023-04-25T06:30:51;5.45;;;2.03;;
46755;SDS011;32506;52.826;-1.192;2023-04-25T06:33:17;2.63;;;1.05;;
46755;SDS011;32506;52.826;-1.192;2023-04-25T06:35:42;6.40;;;1.17;;
46755;SDS011;32506;52.826;-1.192;2023-04-25T06:38:08;3.22;;;1.05;;
46755;SDS011;32506;52.826;-1.192;2023-04-25T06:40:34;3.22;;;1.15;;
46755;SDS011;32506;52.826;-1.192;2023-04-25T06:42:59;3.95;;;1.30;;
46755;SDS011;32506;52.826;-1.192;2023-04-25T06:45:25;4.90;;;1.27;;
46755;SDS011;32506;52.826;-1.192;2023-04-25T06:47:50;4.05;;;1.10;;
46755;SDS011;32506;52.826;-1.192;2023-04-25T06:50:16;5.88;;;1.20;;
46755;SDS011;32506;52.826;-1.192;2023-04-25T06:52:41;3.20;;;1.40;;
46755;SDS011;32506;52.826;-1.192;2023-04-25T06:55:07;4.40;;;1.02;;
46755;SDS011;32506;52.826;-1.192;2023-04-25T06:57:32;3.60;;;1.17;;
46755;SDS011;32506;52.826;-1.192;2023-04-25T06:59:58;2.25;;;0.82;;
46755;SDS011;32506;52.826;-1.192;2023-04-25T07:02:23;3.13;;;1.00;;
46755;SDS011;32506;52.826;-1.192;2023-04-25T07:04:49;4.72;;;1.48;;
46755;SDS011;32506;52.826;-1.192;2023-04-25T07:07:14;2.45;;;0.85;;
46755;SDS011;32506;52.826;-1.192;2023-04-25T07:09:40;1.75;;;0.80;;
46755;SDS011;32506;52.826;-1.192;2023-04-25T07:12:05;1.88;;;0.80;;
46755;SDS011;32506;52.826;-1.192;2023-04-25T07:14:31;1.92;;;0.70;;
46755;SDS011;32506;52.826;-1.192;2023-04-25T07:16:56;4.15;;;1.10;;
46755;SDS011;32506;52.826;-1.192;2023-04-25T07:19:22;1.77;;;0.70;;
46755;SDS011;32506;52.826;-1.192;2023-04-25T07:21:51;4.85;;;1.33;;
46755;SDS011;32506;52.826;-1.192;2023-04-25T07:24:17;2.38;;;0.80;;
46755;SDS011;32506;52.826;-1.192;2023-04-25T07:26:42;4.53;;;0.90;;
46755;SDS011;32506;52.826;-1.192;2023-04-25T07:29:08;2.67;;;0.90;;
46755;SDS011;32506;52.826;-1.192;2023-04-25T07:31:34;4.72;;;1.00;;
46755;SDS011;32506;52.826;-1.192;2023-04-25T07:34:00;3.58;;;1.10;;
46755;SDS011;32506;52.826;-1.192;2023-04-25T07:36:26;3.25;;;0.88;;
46755;SDS011;32506;52.826;-1.192;2023-04-25T07:38:52;4.80;;;1.17;;
46755;SDS011;32506;52.826;-1.192;2023-04-25T07:41:17;3.28;;;0.88;;
46755;SDS011;32506;52.826;-1.192;2023-04-25T07:43:43;3.88;;;0.88;;
46755;SDS011;32506;52.826;-1.192;2023-04-25T07:46:08;3.08;;;1.00;;
46755;SDS011;32506;52.826;-1.192;2023-04-25T07:48:34;5.05;;;1.52;;
46755;SDS011;32506;52.826;-1.192;2023-04-25T07:50:59;6.40;;;1.65;;
46755;SDS011;32506;52.826;-1.192;2023-04-25T07:53:25;2.70;;;1.17;;
46755;SDS011;32506;52.826;-1.192;2023-04-25T07:55:50;4.22;;;1.05;;
46755;SDS011;32506;52.826;-1.192;2023-04-25T07:58:16;4.22;;;1.08;;
46755;SDS011;32506;52.826;-1.192;2023-04-25T08:00:46;4.53;;;1.00;;
46755;SDS011;32506;52.826;-1.192;2023-04-25T08:03:11;4.15;;;1.00;;
46755;SDS011;32506;52.826;-1.192;2023-04-25T08:05:37;4.72;;;1.10;;
46755;SDS011;32506;52.826;-1.192;2023-04-25T08:08:02;5.10;;;1.40;;
46755;SDS011;32506;52.826;-1.192;2023-04-25T08:10:28;5.45;;;1.30;;
46755;SDS011;32506;52.826;-1.192;2023-04-25T08:12:53;5.75;;;1.50;;
46755;SDS011;32506;52.826;-1.192;2023-04-25T08:15:19;7.18;;;1.27;;
46755;SDS011;32506;52.826;-1.192;2023-04-25T08:17:45;2.05;;;0.95;;
46755;SDS011;32506;52.826;-1.192;2023-04-25T08:20:10;4.22;;;1.45;;
46755;SDS011;32506;52.826;-1.192;2023-04-25T08:22:36;4.70;;;1.15;;
46755;SDS011;32506;52.826;-1.192;2023-04-25T08:25:02;6.35;;;1.10;;
46755;SDS011;32506;52.826;-1.192;2023-04-25T08:27:27;4.30;;;1.65;;
46755;SDS011;32506;52.826;-1.192;2023-04-25T08:29:53;4.78;;;1.10;;
46755;SDS011;32506;52.826;-1.192;2023-04-25T08:32:19;3.70;;;1.00;;
46755;SDS011;32506;52.826;-1.192;2023-04-25T08:34:45;4.55;;;1.33;;
46755;SDS011;32506;52.826;-1.192;2023-04-25T08:37:11;5.75;;;1.13;;
46755;SDS011;32506;52.826;-1.192;2023-04-25T08:39:37;4.47;;;0.98;;
46755;SDS011;32506;52.826;-1.192;2023-04-25T08:42:04;4.70;;;1.20;;
46755;SDS011;32506;52.826;-1.192;2023-04-25T08:44:35;7.45;;;2.17;;
46755;SDS011;32506;52.826;-1.192;2023-04-25T08:47:04;8.82;;;1.33;;
46755;SDS011;32506;52.826;-1.192;2023-04-25T08:49:34;2.55;;;0.95;;
46755;SDS011;32506;52.826;-1.192;2023-04-25T08:52:00;7.65;;;2.28;;
46755;SDS011;32506;52.826;-1.192;2023-04-25T08:54:29;4.50;;;1.30;;
46755;SDS011;32506;52.826;-1.192;2023-04-25T08:56:56;3.92;;;0.90;;
46755;SDS011;32506;52.826;-1.192;2023-04-25T08:59:23;4.68;;;1.10;;
46755;SDS011;32506;52.826;-1.192;2023-04-25T09:01:49;4.13;;;1.00;;
46755;SDS011;32506;52.826;-1.192;2023-04-25T09:04:16;4.43;;;1.00;;
46755;SDS011;32506;52.826;-1.192;2023-04-25T09:06:43;4.32;;;0.80;;
46755;SDS011;32506;52.826;-1.192;2023-04-25T09:09:08;3.22;;;1.20;;
46755;SDS011;32506;52.826;-1.192;2023-04-25T09:11:36;2.60;;;0.93;;
46755;SDS011;32506;52.826;-1.192;2023-04-25T09:14:11;3.25;;;0.90;;
46755;SDS011;32506;52.826;-1.192;2023-04-25T09:19:21;5.45;;;0.95;;
46755;SDS011;32506;52.826;-1.192;2023-04-25T09:21:51;5.35;;;0.90;;
46755;SDS011;32506;52.826;-1.192;2023-04-25T09:24:29;3.17;;;0.90;;
46755;SDS011;32506;52.826;-1.192;2023-04-25T09:26:57;2.97;;;0.93;;
46755;SDS011;32506;52.826;-1.192;2023-04-25T09:29:30;5.13;;;1.42;;
46755;SDS011;32506;52.826;-1.192;2023-04-25T09:32:16;2.78;;;0.90;;
46755;SDS011;32506;52.826;-1.192;2023-04-25T09:34:47;3.45;;;1.13;;
46755;SDS011;32506;52.826;-1.192;2023-04-25T09:37:18;2.47;;;0.70;;
46755;SDS011;32506;52.826;-1.192;2023-04-25T09:39:46;4.38;;;1.00;;
46755;SDS011;32506;52.826;-1.192;2023-04-25T09:42:15;4.13;;;1.05;;
46755;SDS011;32506;52.826;-1.192;2023-04-25T09:44:42;3.78;;;1.15;;
46755;SDS011;32506;52.826;-1.192;2023-04-25T09:47:14;3.88;;;0.80;;
46755;SDS011;32506;52.826;-1.192;2023-04-25T09:49:43;2.78;;;0.80;;
46755;SDS011;32506;52.826;-1.192;2023-04-25T09:52:09;3.47;;;0.77;;
46755;SDS011;32506;52.826;-1.192;2023-04-25T09:54:39;1.95;;;0.80;;
46755;SDS011;32506;52.826;-1.192;2023-04-25T09:57:26;2.88;;;1.10;;
46755;SDS011;32506;52.826;-1.192;2023-04-25T09:59:54;5.07;;;1.10;;
46755;SDS011;32506;52.826;-1.192;2023-04-25T10:02:25;4.50;;;0.90;;
46755;SDS011;32506;52.826;-1.192;2023-04-25T10:04:53;2.72;;;0.65;;
46755;SDS011;32506;52.826;-1.192;2023-04-25T10:07:20;3.63;;;0.75;;
46755;SDS011;32506;52.826;-1.192;2023-04-25T10:09:50;4.65;;;1.10;;
46755;SDS011;32506;52.826;-1.192;2023-04-25T10:12:24;5.38;;;1.08;;
46755;SDS011;32506;52.826;-1.192;2023-04-25T10:14:51;4.75;;;1.13;;
46755;SDS011;32506;52.826;-1.192;2023-04-25T10:17:17;4.60;;;1.13;;
46755;SDS011;32506;52.826;-1.192;2023-04-25T10:19:45;4.55;;;0.80;;
46755;SDS011;32506;52.826;-1.192;2023-04-25T10:22:16;2.00;;;0.90;;
46755;SDS011;32506;52.826;-1.192;2023-04-25T10:24:46;2.45;;;1.17;;
46755;SDS011;32506;52.826;-1.192;2023-04-25T10:27:11;3.20;;;0.98;;
46755;SDS011;32506;52.826;-1.192;2023-04-25T10:29:37;2.63;;;0.88;;
46755;SDS011;32506;52.826;-1.192;2023-04-25T10:32:03;3.25;;;0.88;;
46755;SDS011;32506;52.826;-1.192;2023-04-25T10:34:41;2.90;;;0.70;;
46755;SDS011;32506;52.826;-1.192;2023-04-25T10:37:09;3.63;;;1.08;;
46755;SDS011;32506;52.826;-1.192;2023-04-25T10:39:35;4.97;;;1.50;;
46755;SDS011;32506;52.826;-1.192;2023-04-25T10:42:06;4.85;;;1.30;;
46755;SDS011;32506;52.826;-1.192;2023-04-25T10:44:33;5.18;;;1.50;;
46755;SDS011;32506;52.826;-1.192;2023-04-25T10:47:00;5.38;;;1.13;;
46755;SDS011;32506;52.826;-1.192;2023-04-25T10:49:35;3.45;;;1.23;;
46755;SDS011;32506;52.826;-1.192;2023-04-25T10:54:41;6.03;;;1.17;;
46755;SDS011;32506;52.826;-1.192;2023-04-25T11:02:37;6.32;;;1.63;;
46755;SDS011;32506;52.826;-1.192;2023-04-25T11:05:34;4.50;;;1.30;;
46755;SDS011;32506;52.826;-1.192;2023-04-25T11:08:00;6.60;;;1.20;;
46755;SDS011;32506;52.826;-1.192;2023-04-25T11:10:29;2.85;;;1.33;;
46755;SDS011;32506;52.826;-1.192;2023-04-25T11:12:56;3.00;;;1.45;;
46755;SDS011;32506;52.826;-1.192;2023-04-25T11:15:22;3.95;;;1.23;;
46755;SDS011;32506;52.826;-1.192;2023-04-25T11:17:50;4.10;;;1.55;;
46755;SDS011;32506;52.826;-1.192;2023-04-25T11:20:16;4.40;;;1.45;;
46755;SDS011;32506;52.826;-1.192;2023-04-25T11:22:42;2.88;;;1.27;;
46755;SDS011;32506;52.826;-1.192;2023-04-25T11:25:10;2.95;;;1.13;;
46755;SDS011;32506;52.826;-1.192;2023-04-25T11:27:58;3.08;;;1.63;;
46755;SDS011;32506;52.826;-1.192;2023-04-25T11:30:25;6.30;;;1.40;;
46755;SDS011;32506;52.826;-1.192;2023-04-25T11:32:51;4.57;;;1.88;;
46755;SDS011;32506;52.826;-1.192;2023-04-25T11:35:18;5.05;;;1.30;;
46755;SDS011;32506;52.826;-1.192;2023-04-25T11:37:44;4.15;;;1.20;;
46755;SDS011;32506;52.826;-1.192;2023-04-25T11:40:10;3.20;;;1.08;;
46755;SDS011;32506;52.826;-1.192;2023-04-25T11:42:46;2.72;;;1.20;;
46755;SDS011;32506;52.826;-1.192;2023-04-25T11:45:12;4.90;;;1.50;;
46755;SDS011;32506;52.826;-1.192;2023-04-25T11:47:39;5.00;;;1.38;;
46755;SDS011;32506;52.826;-1.192;2023-04-25T11:50:06;6.45;;;1.70;;
46755;SDS011;32506;52.826;-1.192;2023-04-25T11:52:35;3.08;;;1.00;;
46755;SDS011;32506;52.826;-1.192;2023-04-25T11:55:08;3.38;;;1.55;;
46755;SDS011;32506;52.826;-1.192;2023-04-25T11:57:38;5.82;;;1.83;;
46755;SDS011;32506;52.826;-1.192;2023-04-25T12:00:06;4.00;;;1.55;;
46755;SDS011;32506;52.826;-1.192;2023-04-25T12:02:36;3.37;;;1.20;;
46755;SDS011;32506;52.826;-1.192;2023-04-25T12:05:02;4.53;;;1.30;;
46755;SDS011;32506;52.826;-1.192;2023-04-25T12:07:31;3.75;;;1.60;;
46755;SDS011;32506;52.826;-1.192;2023-04-25T12:09:56;2.78;;;1.13;;
46755;SDS011;32506;52.826;-1.192;2023-04-25T12:12:23;3.80;;;1.25;;
46755;SDS011;32506;52.826;-1.192;2023-04-25T12:14:52;5.25;;;1.33;;
46755;SDS011;32506;52.826;-1.192;2023-04-25T12:17:20;4.25;;;1.30;;
46755;SDS011;32506;52.826;-1.192;2023-04-25T12:19:46;3.15;;;1.10;;
46755;SDS011;32506;52.826;-1.192;2023-04-25T12:22:21;4.50;;;1.60;;
46755;SDS011;32506;52.826;-1.192;2023-04-25T12:24:50;5.88;;;1.63;;
46755;SDS011;32506;52.826;-1.192;2023-04-25T12:27:16;3.17;;;1.20;;
46755;SDS011;32506;52.826;-1.192;2023-04-25T12:29:50;4.60;;;1.48;;
46755;SDS011;32506;52.826;-1.192;2023-04-25T12:32:17;6.80;;;1.73;;
46755;SDS011;32506;52.826;-1.192;2023-04-25T12:34:42;5.85;;;2.22;;
46755;SDS011;32506;52.826;-1.192;2023-04-25T12:37:08;5.28;;;1.60;;
46755;SDS011;32506;52.826;-1.192;2023-04-25T12:39:34;3.92;;;1.67;;
46755;SDS011;32506;52.826;-1.192;2023-04-25T12:41:59;4.85;;;1.60;;
46755;SDS011;32506;52.826;-1.192;2023-04-25T12:44:25;4.10;;;1.55;;
46755;SDS011;32506;52.826;-1.192;2023-04-25T12:46:51;4.85;;;1.63;;
46755;SDS011;32506;52.826;-1.192;2023-04-25T12:49:17;3.55;;;1.65;;
46755;SDS011;32506;52.826;-1.192;2023-04-25T12:51:43;3.95;;;1.77;;
46755;SDS011;32506;52.826;-1.192;2023-04-25T12:54:09;5.32;;;1.60;;
46755;SDS011;32506;52.826;-1.192;2023-04-25T12:56:35;4.13;;;1.25;;
46755;SDS011;32506;52.826;-1.192;2023-04-25T12:59:01;7.18;;;1.83;;
46755;SDS011;32506;52.826;-1.192;2023-04-25T13:01:28;5.25;;;1.92;;
46755;SDS011;32506;52.826;-1.192;2023-04-25T13:03:54;5.20;;;1.65;;
46755;SDS011;32506;52.826;-1.192;2023-04-25T13:06:20;6.88;;;1.88;;
46755;SDS011;32506;52.826;-1.192;2023-04-25T13:08:46;5.75;;;2.10;;
46755;SDS011;32506;52.826;-1.192;2023-04-25T13:11:12;5.28;;;1.92;;
46755;SDS011;32506;52.826;-1.192;2023-04-25T13:13:39;4.50;;;1.90;;
46755;SDS011;32506;52.826;-1.192;2023-04-25T13:16:05;7.30;;;2.10;;
46755;SDS011;32506;52.826;-1.192;2023-04-25T13:18:32;6.18;;;2.10;;
46755;SDS011;32506;52.826;-1.192;2023-04-25T13:20:58;6.53;;;2.40;;
46755;SDS011;32506;52.826;-1.192;2023-04-25T13:23:27;6.80;;;2.22;;
46755;SDS011;32506;52.826;-1.192;2023-04-25T13:25:53;5.97;;;1.95;;
46755;SDS011;32506;52.826;-1.192;2023-04-25T13:28:20;6.68;;;1.85;;
46755;SDS011;32506;52.826;-1.192;2023-04-25T13:30:46;5.78;;;2.33;;
46755;SDS011;32506;52.826;-1.192;2023-04-25T13:33:13;6.70;;;2.20;;
46755;SDS011;32506;52.826;-1.192;2023-04-25T13:35:40;6.78;;;2.33;;
46755;SDS011;32506;52.826;-1.192;2023-04-25T13:38:06;5.25;;;2.05;;
46755;SDS011;32506;52.826;-1.192;2023-04-25T13:40:32;6.70;;;2.47;;
46755;SDS011;32506;52.826;-1.192;2023-04-25T13:42:57;8.95;;;2.67;;
46755;SDS011;32506;52.826;-1.192;2023-04-25T13:45:24;9.13;;;1.88;;
46755;SDS011;32506;52.826;-1.192;2023-04-25T13:47:50;5.82;;;2.47;;
46755;SDS011;32506;52.826;-1.192;2023-04-25T13:50:15;6.80;;;2.33;;
46755;SDS011;32506;52.826;-1.192;2023-04-25T13:52:41;6.78;;;2.17;;
46755;SDS011;32506;52.826;-1.192;2023-04-25T13:55:07;7.57;;;2.60;;
46755;SDS011;32506;52.826;-1.192;2023-04-25T13:57:34;4.55;;;2.33;;
46755;SDS011;32506;52.826;-1.192;2023-04-25T14:00:00;6.95;;;2.60;;
46755;SDS011;32506;52.826;-1.192;2023-04-25T14:02:31;4.78;;;2.40;;
46755;SDS011;32506;52.826;-1.192;2023-04-25T14:04:56;5.50;;;2.33;;
46755;SDS011;32506;52.826;-1.192;2023-04-25T14:07:22;9.95;;;2.80;;
46755;SDS011;32506;52.826;-1.192;2023-04-25T14:09:47;6.00;;;2.85;;
46755;SDS011;32506;52.826;-1.192;2023-04-25T14:12:13;5.63;;;2.40;;
46755;SDS011;32506;52.826;-1.192;2023-04-25T14:14:38;5.85;;;2.38;;
46755;SDS011;32506;52.826;-1.192;2023-04-25T14:17:04;5.57;;;2.42;;
46755;SDS011;32506;52.826;-1.192;2023-04-25T14:19:30;5.53;;;2.53;;
46755;SDS011;32506;52.826;-1.192;2023-04-25T14:21:55;7.05;;;2.38;;
46755;SDS011;32506;52.826;-1.192;2023-04-25T14:24:21;6.05;;;2.40;;
46755;SDS011;32506;52.826;-1.192;2023-04-25T14:26:46;5.53;;;2.28;;
46755;SDS011;32506;52.826;-1.192;2023-04-25T14:29:12;6.53;;;2.22;;
46755;SDS011;32506;52.826;-1.192;2023-04-25T14:31:38;5.35;;;2.42;;
46755;SDS011;32506;52.826;-1.192;2023-04-25T14:34:05;12.13;;;2.30;;
46755;SDS011;32506;52.826;-1.192;2023-04-25T14:36:31;7.10;;;2.78;;
46755;SDS011;32506;52.826;-1.192;2023-04-25T14:38:57;5.53;;;2.00;;
46755;SDS011;32506;52.826;-1.192;2023-04-25T14:41:23;6.90;;;2.60;;